Time;durP1;ratioP1;P1;durP2;ratioP2;P2;SDS_P1;SDS_P2;PMS_P1;PMS_P2;Temp;Humidity;BMP_temperature;BMP_pressure;BME280_temperature;BME280_humidity;BME280_pressure;Samples;Min_cycle;Max_cycle;Signal;HPM_P1;HPM_P2
2024/04/08 00:00:25;;;;;;;104.60;97.60;;;21.40;1.00;;;;;;2613333;47;20418;-73
2024/04/08 00:02:51;;;;;;;105.77;98.67;;;21.40;1.00;;;;;;2612827;47;20515;-73
2024/04/08 00:05:18;;;;;;;105.53;98.53;;;21.40;1.00;;;;;;2613754;39;21161;-73
2024/04/08 00:07:44;;;;;;;104.77;97.77;;;21.30;1.00;;;;;;2613936;54;20428;-73
2024/04/08 00:10:11;;;;;;;103.47;96.47;;;21.40;1.00;;;;;;2613497;47;20424;-71
2024/04/08 00:12:40;;;;;;;105.00;98.00;;;21.30;1.00;;;;;;2613358;54;20455;-73
2024/04/08 00:15:07;;;;;;;105.50;98.50;;;21.30;1.00;;;;;;2613132;47;20419;-67
2024/04/08 00:17:33;;;;;;;105.73;98.63;;;21.30;1.00;;;;;;2613282;54;21031;-67
2024/04/08 00:19:59;;;;;;;104.10;97.10;;;21.30;1.00;;;;;;2613492;54;20388;-68
2024/04/08 00:22:25;;;;;;;104.73;97.73;;;21.30;1.00;;;;;;2613488;54;20431;-67
2024/04/08 00:24:52;;;;;;;104.07;97.07;;;21.30;1.00;;;;;;2612885;46;21282;-68
2024/04/08 00:27:17;;;;;;;105.60;98.50;;;21.30;1.00;;;;;;2613483;54;20151;-67
2024/04/08 00:29:43;;;;;;;105.30;98.20;;;21.40;1.00;;;;;;2613722;47;20925;-67
2024/04/08 00:32:09;;;;;;;105.80;98.70;;;21.40;1.00;;;;;;2613260;39;20619;-68
2024/04/08 00:34:34;;;;;;;105.67;98.57;;;21.40;1.00;;;;;;2613375;54;20154;-67
2024/04/08 00:37:00;;;;;;;104.80;97.70;;;21.30;1.00;;;;;;2613281;54;20795;-67
2024/04/08 00:39:25;;;;;;;105.50;98.40;;;21.40;1.00;;;;;;2612907;47;20242;-67
2024/04/08 00:41:51;;;;;;;105.20;98.10;;;21.30;1.00;;;;;;2613236;54;20197;-67
2024/04/08 00:44:17;;;;;;;105.70;98.60;;;21.30;1.00;;;;;;2613185;54;20230;-67
2024/04/08 00:46:43;;;;;;;105.00;97.90;;;21.30;1.00;;;;;;2613554;54;20839;-67
2024/04/08 00:49:10;;;;;;;105.97;98.77;;;21.30;1.00;;;;;;2612946;54;20162;-67
2024/04/08 00:51:36;;;;;;;104.80;97.80;;;21.30;1.00;;;;;;2612865;39;20408;-67
2024/04/08 00:54:02;;;;;;;104.80;97.80;;;21.30;1.00;;;;;;2612996;47;20446;-67
2024/04/08 00:56:28;;;;;;;104.67;97.60;;;21.30;1.00;;;;;;2612061;54;20433;-67
2024/04/08 00:58:54;;;;;;;105.50;98.40;;;21.30;1.00;;;;;;2613366;54;20147;-67
2024/04/08 01:01:20;;;;;;;106.00;99.00;;;21.30;1.00;;;;;;2612551;54;20446;-67
2024/04/08 01:03:46;;;;;;;104.20;97.20;;;21.30;1.00;;;;;;2612620;54;20441;-64
2024/04/08 01:06:12;;;;;;;106.33;99.23;;;21.30;1.00;;;;;;2612405;54;20427;-67
2024/04/08 01:08:39;;;;;;;105.10;98.07;;;21.30;1.00;;;;;;2612945;54;20184;-67
2024/04/08 01:11:07;;;;;;;104.30;97.30;;;21.30;1.00;;;;;;2613112;54;20395;-68
2024/04/08 01:13:32;;;;;;;104.40;97.40;;;21.30;1.00;;;;;;2613200;54;20451;-68
2024/04/08 01:15:59;;;;;;;107.97;100.77;;;21.30;1.00;;;;;;2613165;47;20431;-68
2024/04/08 01:18:25;;;;;;;107.00;99.80;;;21.30;1.00;;;;;;2613654;39;20562;-68
2024/04/08 01:20:51;;;;;;;105.97;98.77;;;21.30;1.00;;;;;;2613402;54;20914;-68
2024/04/08 01:23:20;;;;;;;105.90;98.80;;;21.30;1.00;;;;;;2613375;39;20772;-68
2024/04/08 01:25:46;;;;;;;107.33;100.03;;;21.30;1.00;;;;;;2613535;54;20177;-72
2024/04/08 01:28:12;;;;;;;106.13;98.93;;;21.30;1.00;;;;;;2614045;54;20443;-72
2024/04/08 01:30:38;;;;;;;105.70;98.60;;;21.30;1.00;;;;;;2614185;54;20427;-72
2024/04/08 01:33:04;;;;;;;105.20;98.20;;;21.30;1.00;;;;;;2614281;39;20814;-73
2024/04/08 01:35:29;;;;;;;105.67;98.57;;;21.30;1.00;;;;;;2613551;54;20539;-72
2024/04/08 01:37:55;;;;;;;105.07;98.07;;;21.40;1.00;;;;;;2613662;54;20159;-72
2024/04/08 01:40:21;;;;;;;105.57;98.57;;;21.30;1.00;;;;;;2613479;54;20650;-72
2024/04/08 01:42:46;;;;;;;105.10;98.10;;;21.30;1.00;;;;;;2613351;54;20174;-72
2024/04/08 01:45:12;;;;;;;104.50;97.60;;;21.30;1.00;;;;;;2612787;54;20173;-69
2024/04/08 01:47:38;;;;;;;106.17;99.00;;;21.30;1.00;;;;;;2612296;54;20222;-71
2024/04/08 01:50:04;;;;;;;105.83;98.73;;;21.30;1.00;;;;;;2613381;47;20166;-72
2024/04/08 01:52:29;;;;;;;104.80;97.80;;;21.30;1.00;;;;;;2613101;54;20201;-72
2024/04/08 01:54:55;;;;;;;105.70;98.60;;;21.30;1.00;;;;;;2612829;47;20522;-72
2024/04/08 01:57:21;;;;;;;104.63;97.63;;;21.30;1.00;;;;;;2613161;46;20180;-72
2024/04/08 01:59:47;;;;;;;105.83;98.73;;;21.30;1.00;;;;;;2613069;54;20158;-72
2024/04/08 02:02:12;;;;;;;104.97;97.87;;;21.30;1.00;;;;;;2613255;54;20173;-72
2024/04/08 02:04:38;;;;;;;104.67;97.57;;;21.30;1.00;;;;;;2612658;54;20170;-73
2024/04/08 02:07:04;;;;;;;104.57;97.57;;;21.30;1.00;;;;;;2612599;54;20159;-72
2024/04/08 02:09:30;;;;;;;103.83;96.83;;;21.30;1.00;;;;;;2612927;47;21031;-72
2024/04/08 02:11:56;;;;;;;104.53;97.53;;;21.30;1.00;;;;;;2613422;54;20571;-71
2024/04/08 02:14:22;;;;;;;105.30;98.20;;;21.20;1.00;;;;;;2613679;54;20166;-72
2024/04/08 02:16:47;;;;;;;106.10;98.90;;;21.30;1.00;;;;;;2613381;47;20151;-71
2024/04/08 02:19:13;;;;;;;104.50;97.40;;;21.30;1.00;;;;;;2613155;54;20155;-70
2024/04/08 02:21:39;;;;;;;104.20;97.10;;;21.20;1.00;;;;;;2613107;54;20166;-71
2024/04/08 02:24:04;;;;;;;105.33;98.13;;;21.20;1.00;;;;;;2612307;54;20143;-71
2024/04/08 02:26:30;;;;;;;105.00;97.90;;;21.30;1.00;;;;;;2613290;54;20162;-71
2024/04/08 02:28:58;;;;;;;104.27;97.17;;;21.30;1.00;;;;;;2613427;54;20698;-71
2024/04/08 02:31:24;;;;;;;105.70;98.50;;;21.30;1.00;;;;;;2612816;54;20162;-71
2024/04/08 02:33:50;;;;;;;104.37;97.37;;;21.20;1.00;;;;;;2613242;54;20411;-71
2024/04/08 02:36:16;;;;;;;104.80;97.70;;;21.20;1.00;;;;;;2613383;54;20166;-68
2024/04/08 02:38:42;;;;;;;104.60;97.60;;;21.20;1.00;;;;;;2613468;54;20419;-68
2024/04/08 02:41:07;;;;;;;104.87;97.77;;;21.20;1.00;;;;;;2613871;47;20150;-68
2024/04/08 02:43:33;;;;;;;104.90;97.80;;;21.20;1.00;;;;;;2613764;54;20181;-68
2024/04/08 02:45:59;;;;;;;104.80;97.80;;;21.20;1.00;;;;;;2613560;54;20207;-68
2024/04/08 02:48:25;;;;;;;105.13;98.10;;;21.20;1.00;;;;;;2613640;54;20660;-68
2024/04/08 02:50:51;;;;;;;104.10;97.10;;;21.20;1.00;;;;;;2613456;54;20179;-68
2024/04/08 02:53:17;;;;;;;105.77;98.67;;;21.20;1.00;;;;;;2612778;54;20791;-68
2024/04/08 02:55:43;;;;;;;105.50;98.40;;;21.20;1.00;;;;;;2613378;54;20443;-72
2024/04/08 02:58:08;;;;;;;105.20;98.10;;;21.20;1.00;;;;;;2613800;54;20499;-72
2024/04/08 03:00:40;;;;;;;104.67;97.57;;;21.20;1.00;;;;;;2613984;39;21006;-71
2024/04/08 03:03:09;;;;;;;104.40;97.30;;;21.20;1.00;;;;;;2613475;54;20162;-71
2024/04/08 03:05:35;;;;;;;106.80;99.50;;;21.20;1.00;;;;;;2612922;54;20985;-72
2024/04/08 03:08:00;;;;;;;105.00;97.90;;;21.20;1.00;;;;;;2613590;54;20414;-71
2024/04/08 03:10:26;;;;;;;106.50;99.20;;;21.20;1.00;;;;;;2612965;47;20170;-72
2024/04/08 03:12:53;;;;;;;105.80;98.70;;;21.20;1.00;;;;;;2613110;39;20516;-72
2024/04/08 03:15:19;;;;;;;107.03;99.80;;;21.10;1.00;;;;;;2613488;54;20275;-72
2024/04/08 03:17:45;;;;;;;105.90;98.70;;;21.20;1.00;;;;;;2614664;39;20815;-71
2024/04/08 03:20:11;;;;;;;105.87;98.67;;;21.10;1.00;;;;;;2614354;54;20171;-72
2024/04/08 03:22:37;;;;;;;105.57;98.37;;;21.10;1.00;;;;;;2613992;47;20469;-72
2024/04/08 03:25:02;;;;;;;105.80;98.60;;;21.10;1.00;;;;;;2615444;47;20175;-71
2024/04/08 03:27:28;;;;;;;105.27;98.07;;;21.10;1.00;;;;;;2613082;50;20193;-67
2024/04/08 03:29:54;;;;;;;105.47;98.27;;;21.10;1.00;;;;;;2612707;54;20587;-67
2024/04/08 03:32:20;;;;;;;106.27;99.17;;;21.10;1.00;;;;;;2613526;31;20669;-69
2024/04/08 03:34:46;;;;;;;106.63;99.43;;;21.10;1.00;;;;;;2612796;47;20481;-67
2024/04/08 03:37:11;;;;;;;105.17;97.97;;;21.10;1.00;;;;;;2613018;54;20661;-66
2024/04/08 03:39:37;;;;;;;104.90;97.80;;;21.20;1.00;;;;;;2612202;54;20444;-66
2024/04/08 03:42:03;;;;;;;106.20;98.90;;;21.20;1.00;;;;;;2612617;54;20162;-66
2024/04/08 03:44:29;;;;;;;106.30;99.10;;;21.20;1.00;;;;;;2612961;54;20668;-66
2024/04/08 03:46:54;;;;;;;105.30;98.10;;;21.20;1.00;;;;;;2613194;54;20419;-67
2024/04/08 03:49:20;;;;;;;106.00;98.80;;;21.20;1.00;;;;;;2612537;54;20169;-66
2024/04/08 03:51:46;;;;;;;106.00;98.80;;;21.20;1.00;;;;;;2612613;54;20159;-65
2024/04/08 03:54:11;;;;;;;105.20;98.00;;;21.20;1.00;;;;;;2612328;54;20201;-67
2024/04/08 03:56:37;;;;;;;105.90;98.70;;;21.20;1.00;;;;;;2612997;39;20660;-67
2024/04/08 03:59:04;;;;;;;105.50;98.30;;;21.20;1.00;;;;;;2611894;54;20251;-67
2024/04/08 04:01:29;;;;;;;105.43;98.23;;;21.20;1.00;;;;;;2612303;54;20285;-66
2024/04/08 04:03:55;;;;;;;106.03;98.73;;;21.20;1.00;;;;;;2611869;54;20399;-68
2024/04/08 04:06:21;;;;;;;105.43;98.20;;;21.20;1.00;;;;;;2612482;39;20492;-70
2024/04/08 04:08:48;;;;;;;105.60;98.30;;;21.10;1.00;;;;;;2613098;47;20162;-71
2024/04/08 04:11:14;;;;;;;105.10;97.90;;;21.10;1.00;;;;;;2612896;54;20159;-70
2024/04/08 04:13:39;;;;;;;104.97;97.73;;;21.10;1.00;;;;;;2612884;54;20420;-70
2024/04/08 04:16:06;;;;;;;105.77;98.57;;;21.10;1.00;;;;;;2612878;54;20396;-70
2024/04/08 04:18:34;;;;;;;104.80;97.60;;;21.10;1.00;;;;;;2613018;54;20170;-70
2024/04/08 04:21:00;;;;;;;104.30;97.20;;;21.10;1.00;;;;;;2612561;54;20411;-70
2024/04/08 04:23:25;;;;;;;105.27;98.07;;;21.10;1.00;;;;;;2613427;39;20805;-70
2024/04/08 04:25:58;;;;;;;106.17;98.87;;;21.10;1.00;;;;;;2612790;54;20162;-70
2024/04/08 04:28:24;;;;;;;104.87;97.77;;;21.10;1.00;;;;;;2613065;54;20166;-70
2024/04/08 04:30:57;;;;;;;105.93;98.70;;;21.10;1.00;;;;;;2612620;54;20981;-69
2024/04/08 04:33:24;;;;;;;105.53;98.33;;;21.10;1.00;;;;;;2612570;46;20159;-70
2024/04/08 04:35:57;;;;;;;106.17;98.97;;;21.10;1.00;;;;;;2612833;54;20408;-75
2024/04/08 04:38:24;;;;;;;105.90;98.50;;;21.10;1.00;;;;;;2612889;54;20423;-75
2024/04/08 04:40:59;;;;;;;106.20;98.90;;;21.10;1.00;;;;;;2612539;47;20427;-75
2024/04/08 04:43:25;;;;;;;106.47;99.07;;;21.10;1.00;;;;;;2613106;54;20462;-75
2024/04/08 04:45:51;;;;;;;105.73;98.43;;;21.00;1.00;;;;;;2613010;54;20399;-75
2024/04/08 04:48:17;;;;;;;106.40;99.00;;;21.10;1.00;;;;;;2613031;54;20420;-75
2024/04/08 04:50:42;;;;;;;106.90;99.50;;;21.10;1.00;;;;;;2612659;54;20178;-75
2024/04/08 04:53:08;;;;;;;105.40;98.10;;;21.10;1.00;;;;;;2613157;54;20583;-75
2024/04/08 04:55:36;;;;;;;106.47;99.07;;;21.10;1.00;;;;;;2613510;54;20183;-68
2024/04/08 04:58:02;;;;;;;105.70;98.40;;;21.10;1.00;;;;;;2612781;39;20896;-69
2024/04/08 05:00:28;;;;;;;105.90;98.70;;;21.10;1.00;;;;;;2612120;54;20431;-68
2024/04/08 05:02:54;;;;;;;106.67;99.30;;;21.10;1.00;;;;;;2611880;47;20194;-69
2024/04/08 05:05:19;;;;;;;104.70;97.40;;;21.10;1.00;;;;;;2612910;54;20404;-69
2024/04/08 05:07:45;;;;;;;104.57;97.37;;;21.10;1.00;;;;;;2612612;54;20174;-69
2024/04/08 05:10:11;;;;;;;103.93;96.83;;;21.10;1.00;;;;;;2612006;54;20189;-69
2024/04/08 05:12:36;;;;;;;104.30;97.10;;;21.10;1.00;;;;;;2612841;54;20168;-68
2024/04/08 05:15:02;;;;;;;105.00;97.70;;;21.10;1.00;;;;;;2612984;54;20658;-68
2024/04/08 05:17:28;;;;;;;104.40;97.20;;;21.10;1.00;;;;;;2612784;54;20170;-70
2024/04/08 05:19:55;;;;;;;104.60;97.40;;;21.10;1.00;;;;;;2612605;54;20740;-70
2024/04/08 05:22:23;;;;;;;106.47;99.07;;;21.10;1.00;;;;;;2611968;47;20219;-70
2024/04/08 05:24:48;;;;;;;105.13;97.83;;;21.10;1.00;;;;;;2612496;54;20411;-70
2024/04/08 05:27:14;;;;;;;106.23;99.03;;;21.10;1.00;;;;;;2612360;54;20412;-70
2024/04/08 05:29:41;;;;;;;105.33;98.13;;;21.10;1.00;;;;;;2613074;39;20531;-70
2024/04/08 05:32:07;;;;;;;105.17;97.97;;;21.10;1.00;;;;;;2611261;54;20155;-70
2024/04/08 05:34:32;;;;;;;102.60;95.70;;;21.10;1.00;;;;;;2612756;54;20430;-72
2024/04/08 05:36:58;;;;;;;103.30;96.40;;;21.20;1.00;;;;;;2613547;54;20419;-73
2024/04/08 05:39:24;;;;;;;103.33;96.53;;;21.20;1.00;;;;;;2612763;47;20281;-73
2024/04/08 05:41:49;;;;;;;106.70;99.40;;;21.30;1.00;;;;;;2612673;39;20648;-72
2024/04/08 05:44:15;;;;;;;96.43;90.23;;;21.50;1.00;;;;;;2613215;54;20162;-84
2024/04/08 05:46:42;;;;;;;112.07;104.47;;;21.80;1.00;;;;;;2613036;54;20635;-69
2024/04/08 05:49:08;;;;;;;116.30;107.80;;;22.10;1.00;;;;;;2612229;54;20715;-72
2024/04/08 05:51:34;;;;;;;116.77;108.37;;;22.30;1.00;;;;;;2612163;39;20823;-72
2024/04/08 05:54:00;;;;;;;120.73;111.63;;;22.40;1.00;;;;;;2620001;54;20491;-73
2024/04/08 05:56:26;;;;;;;120.27;111.17;;;22.60;1.00;;;;;;2620597;54;20147;-72
2024/04/08 05:58:53;;;;;;;105.77;98.80;;;22.80;1.00;;;;;;2620875;54;20230;-71
2024/04/08 06:01:18;;;;;;;111.90;104.10;;;22.90;1.00;;;;;;2623223;54;20182;-70
2024/04/08 06:03:44;;;;;;;115.00;107.13;;;22.90;1.00;;;;;;2622198;54;20469;-69
2024/04/08 06:06:17;;;;;;;111.10;103.20;;;22.90;1.00;;;;;;2619482;47;20163;-67
2024/04/08 06:08:43;;;;;;;111.17;103.17;;;23.00;1.00;;;;;;2618094;54;20163;-67
2024/04/08 06:11:09;;;;;;;113.53;105.33;;;23.00;1.00;;;;;;2615693;54;20553;-67
2024/04/08 06:13:35;;;;;;;113.97;105.77;;;23.10;1.00;;;;;;2614813;54;20388;-69
2024/04/08 06:16:02;;;;;;;113.13;104.83;;;23.10;1.00;;;;;;2615782;54;20308;-68
2024/04/08 06:18:27;;;;;;;114.53;106.13;;;23.10;1.00;;;;;;2616099;39;20603;-67
2024/04/08 06:20:57;;;;;;;105.33;98.33;;;23.20;1.00;;;;;;2613987;54;20475;-69
2024/04/08 06:23:23;;;;;;;108.33;101.03;;;23.10;1.00;;;;;;2615585;54;20162;-68
2024/04/08 06:26:07;;;;;;;107.00;99.70;;;22.80;1.00;;;;;;2619206;54;20446;-75
2024/04/08 06:28:33;;;;;;;105.40;98.30;;;22.50;1.00;;;;;;2625632;54;20518;-75
2024/04/08 06:30:59;;;;;;;106.00;98.80;;;22.30;1.00;;;;;;2625425;54;20450;-76
2024/04/08 06:33:24;;;;;;;104.03;97.03;;;22.00;1.00;;;;;;2625722;39;20538;-76
2024/04/08 06:35:51;;;;;;;106.17;98.97;;;21.90;1.00;;;;;;2615051;47;20539;-76
2024/04/08 06:38:17;;;;;;;105.13;97.93;;;21.80;1.00;;;;;;2612364;54;20171;-76
2024/04/08 06:40:43;;;;;;;105.00;98.00;;;21.70;1.00;;;;;;2610824;47;20495;-76
2024/04/08 06:43:10;;;;;;;106.10;98.97;;;21.70;1.00;;;;;;2611068;54;20534;-76
2024/04/08 06:45:35;;;;;;;105.70;98.70;;;21.70;1.00;;;;;;2613922;54;20456;-76
2024/04/08 06:48:01;;;;;;;106.13;99.13;;;21.60;1.00;;;;;;2613588;54;20929;-77
2024/04/08 06:50:28;;;;;;;105.87;98.67;;;21.60;1.00;;;;;;2613606;54;20163;-77
2024/04/08 06:52:54;;;;;;;105.43;98.23;;;21.60;1.00;;;;;;2614575;47;20450;-76
2024/04/08 06:55:19;;;;;;;105.30;98.20;;;21.60;1.00;;;;;;2613426;47;20462;-68
2024/04/08 06:57:48;;;;;;;105.07;98.07;;;21.60;1.00;;;;;;2612433;39;20922;-67
2024/04/08 07:00:14;;;;;;;105.93;98.83;;;21.60;1.00;;;;;;2612328;54;20167;-66
2024/04/08 07:02:40;;;;;;;105.40;98.40;;;21.60;1.00;;;;;;2611730;54;21012;-68
2024/04/08 07:05:06;;;;;;;105.43;98.43;;;21.60;1.00;;;;;;2612561;54;20209;-67
2024/04/08 07:07:32;;;;;;;104.93;97.83;;;21.60;1.00;;;;;;2612175;54;20435;-67
2024/04/08 07:09:58;;;;;;;108.07;100.67;;;21.60;1.00;;;;;;2609022;54;20154;-68
2024/04/08 07:12:24;;;;;;;106.30;99.20;;;21.60;1.00;;;;;;2609087;54;20426;-68
2024/04/08 07:14:53;;;;;;;105.93;98.83;;;21.60;1.00;;;;;;2610469;54;20174;-68
2024/04/08 07:17:21;;;;;;;106.00;98.90;;;21.60;1.00;;;;;;2612876;54;20198;-66
2024/04/08 07:19:48;;;;;;;105.73;98.63;;;21.60;1.00;;;;;;2612720;54;20429;-67
2024/04/08 07:22:13;;;;;;;106.57;99.37;;;21.60;1.00;;;;;;2611711;54;20501;-67
2024/04/08 07:24:40;;;;;;;106.60;99.40;;;21.60;1.00;;;;;;2612059;39;21047;-67
2024/04/08 07:27:06;;;;;;;105.13;98.03;;;21.60;1.00;;;;;;2612153;54;20202;-68
2024/04/08 07:29:32;;;;;;;109.03;101.53;;;21.70;1.00;;;;;;2609914;39;20813;-68
2024/04/08 07:32:00;;;;;;;105.77;98.57;;;21.70;1.00;;;;;;2609846;54;20486;-68
2024/04/08 07:34:25;;;;;;;103.47;96.40;;;21.60;1.00;;;;;;2611247;54;20407;-68
2024/04/08 07:36:51;;;;;;;103.90;96.80;;;21.60;1.00;;;;;;2612162;54;20423;-67
2024/04/08 07:39:17;;;;;;;105.33;98.13;;;21.60;1.00;;;;;;2612442;54;20146;-68
2024/04/08 07:41:43;;;;;;;104.53;97.43;;;21.60;1.00;;;;;;2612121;54;20177;-68
2024/04/08 07:44:09;;;;;;;104.43;97.43;;;21.60;1.00;;;;;;2611602;47;20162;-68
2024/04/08 07:46:35;;;;;;;103.67;96.87;;;21.60;1.00;;;;;;2612256;47;20539;-70
2024/04/08 07:49:01;;;;;;;106.37;99.07;;;21.60;1.00;;;;;;2612593;54;20315;-71
2024/04/08 07:51:27;;;;;;;106.27;99.10;;;21.60;1.00;;;;;;2612510;39;20799;-70
2024/04/08 07:53:53;;;;;;;106.20;98.90;;;21.60;1.00;;;;;;2611544;54;20451;-70
2024/04/08 07:56:19;;;;;;;105.60;98.40;;;21.60;1.00;;;;;;2612267;54;20431;-71
2024/04/08 07:58:46;;;;;;;106.27;98.87;;;21.70;1.00;;;;;;2606941;54;20399;-70
2024/04/08 08:01:11;;;;;;;106.70;99.40;;;21.70;1.00;;;;;;2609537;47;20165;-70
2024/04/08 08:03:38;;;;;;;106.57;99.27;;;21.70;1.00;;;;;;2608230;54;20432;-69
2024/04/08 08:06:04;;;;;;;106.50;99.20;;;21.70;1.00;;;;;;2608989;54;20795;-69
2024/04/08 08:08:29;;;;;;;106.20;99.00;;;21.70;1.00;;;;;;2607505;54;21304;-69
2024/04/08 08:11:03;;;;;;;105.70;98.50;;;21.70;1.00;;;;;;2606345;54;20420;-69
2024/04/08 08:13:30;;;;;;;106.50;99.30;;;21.70;1.00;;;;;;2605022;51;20266;-69
2024/04/08 08:15:57;;;;;;;105.40;98.30;;;21.70;1.00;;;;;;2607157;54;20454;-83
2024/04/08 08:18:23;;;;;;;106.80;99.60;;;21.70;1.00;;;;;;2613816;54;20415;-83
2024/04/08 08:20:49;;;;;;;107.03;99.80;;;21.70;1.00;;;;;;2610066;54;20455;-83
2024/04/08 08:23:15;;;;;;;106.77;99.63;;;21.70;1.00;;;;;;2610462;54;20399;-83
2024/04/08 08:25:41;;;;;;;106.87;99.67;;;21.70;1.00;;;;;;2609473;47;20579;-83
2024/04/08 08:28:06;;;;;;;106.57;99.37;;;21.70;1.00;;;;;;2606964;54;20403;-83
2024/04/08 08:30:36;;;;;;;107.20;99.90;;;21.70;1.00;;;;;;2609047;51;20166;-83
2024/04/08 08:33:02;;;;;;;109.50;102.20;;;21.80;1.00;;;;;;2608366;54;20170;-82
2024/04/08 08:35:28;;;;;;;110.30;102.90;;;21.80;1.00;;;;;;2607548;47;20530;-68
2024/04/08 08:37:53;;;;;;;108.20;100.80;;;21.80;1.00;;;;;;2606678;39;20799;-68
2024/04/08 08:40:22;;;;;;;106.77;99.47;;;21.80;1.00;;;;;;2606989;54;20146;-68
2024/04/08 08:42:51;;;;;;;106.77;99.47;;;21.80;1.00;;;;;;2606287;39;20898;-68
2024/04/08 08:45:17;;;;;;;106.37;99.07;;;21.80;1.00;;;;;;2605589;54;20438;-67
2024/04/08 08:47:43;;;;;;;106.10;98.90;;;21.80;1.00;;;;;;2605503;54;21062;-67
2024/04/08 08:50:10;;;;;;;105.80;98.60;;;21.90;1.00;;;;;;2605991;54;20395;-67
2024/04/08 08:52:37;;;;;;;107.57;100.20;;;21.90;1.00;;;;;;2605537;54;20415;-67
2024/04/08 08:55:04;;;;;;;105.70;98.50;;;22.00;1.00;;;;;;2605631;54;20542;-67
2024/04/08 08:57:30;;;;;;;107.47;100.17;;;22.00;1.00;;;;;;2606046;54;21076;-76
2024/04/08 08:59:57;;;;;;;106.27;98.97;;;22.00;1.00;;;;;;2606420;54;20392;-75
2024/04/08 09:02:25;;;;;;;107.30;100.10;;;22.10;1.00;;;;;;2606168;47;20423;-76
2024/04/08 09:04:52;;;;;;;106.87;99.67;;;22.10;1.00;;;;;;2607996;47;20550;-76
2024/04/08 09:07:18;;;;;;;107.50;100.20;;;22.20;1.00;;;;;;2607002;54;20462;-76
2024/04/08 09:09:57;;;;;;;105.40;98.30;;;22.20;1.00;;;;;;2606238;54;20388;-76
2024/04/08 09:12:23;;;;;;;105.30;98.10;;;22.30;1.00;;;;;;2606742;54;20430;-76
2024/04/08 09:14:51;;;;;;;105.40;98.20;;;22.30;1.00;;;;;;2606940;54;20473;-76
2024/04/08 09:17:18;;;;;;;106.67;99.17;;;22.40;1.00;;;;;;2607305;39;20760;-76
2024/04/08 09:19:43;;;;;;;104.60;97.30;;;22.40;1.00;;;;;;2606601;54;21064;-76
2024/04/08 09:22:10;;;;;;;106.43;99.13;;;22.50;1.00;;;;;;2606689;54;20438;-76
2024/04/08 09:24:35;;;;;;;106.03;98.80;;;22.50;1.00;;;;;;2607652;47;20261;-77
2024/04/08 09:27:02;;;;;;;105.70;98.40;;;22.60;1.00;;;;;;2609093;47;20489;-70
2024/04/08 09:29:28;;;;;;;104.97;97.47;;;22.60;1.00;;;;;;2608642;54;20581;-70
2024/04/08 09:31:53;;;;;;;105.20;97.90;;;22.70;1.00;;;;;;2609855;54;20435;-70
2024/04/08 09:34:20;;;;;;;107.13;99.73;;;22.80;1.00;;;;;;2607792;54;20193;-69
2024/04/08 09:36:46;;;;;;;106.20;98.80;;;22.80;1.00;;;;;;2608823;47;20162;-69
2024/04/08 09:39:12;;;;;;;105.17;97.97;;;22.90;1.00;;;;;;2609188;39;21155;-69
2024/04/08 09:41:39;;;;;;;105.30;98.10;;;22.90;1.00;;;;;;2606897;54;20554;-69
2024/04/08 09:44:12;;;;;;;105.67;98.30;;;22.90;1.00;;;;;;2607406;39;20798;-70
2024/04/08 09:46:40;;;;;;;105.00;97.80;;;23.00;1.00;;;;;;2609827;31;21008;-70
2024/04/08 09:49:10;;;;;;;105.63;98.43;;;23.10;1.00;;;;;;2609041;47;20427;-68
2024/04/08 09:51:46;;;;;;;106.00;98.70;;;23.10;1.00;;;;;;2609216;54;20427;-69
2024/04/08 09:54:12;;;;;;;105.57;98.37;;;23.10;1.00;;;;;;2609057;47;20451;-69
2024/04/08 09:56:39;;;;;;;106.70;99.40;;;23.10;1.00;;;;;;2607887;47;20472;-69
2024/04/08 09:59:19;;;;;;;107.70;100.20;;;23.20;1.00;;;;;;2608418;46;20159;-70
2024/04/08 10:01:45;;;;;;;105.90;98.50;;;23.30;1.00;;;;;;2608848;54;20407;-70
2024/04/08 10:04:22;;;;;;;105.70;98.40;;;23.40;1.00;;;;;;2608283;54;21013;-69
2024/04/08 10:06:49;;;;;;;105.87;98.60;;;23.40;1.00;;;;;;2608874;47;20426;-69
2024/04/08 10:09:20;;;;;;;106.00;98.70;;;23.40;1.00;;;;;;2607853;47;20467;-69
2024/04/08 10:11:50;;;;;;;106.40;99.30;;;23.40;1.00;;;;;;2609414;39;21053;-69
2024/04/08 10:14:20;;;;;;;106.97;99.77;;;23.40;1.00;;;;;;2608813;54;20458;-70
2024/04/08 10:16:52;;;;;;;106.13;98.93;;;23.40;1.00;;;;;;2607694;54;20396;-69
2024/04/08 10:19:22;;;;;;;108.80;101.30;;;23.50;1.00;;;;;;2607323;54;20434;-69
2024/04/08 10:21:52;;;;;;;106.33;99.13;;;23.50;1.00;;;;;;2609290;47;20427;-69
2024/04/08 10:24:29;;;;;;;106.13;98.73;;;23.50;1.00;;;;;;2609364;39;20888;-69
2024/04/08 10:27:08;;;;;;;107.10;99.70;;;23.50;1.00;;;;;;2607969;54;20411;-69
2024/04/08 10:29:37;;;;;;;106.70;99.40;;;23.60;1.00;;;;;;2607121;54;20474;-69
2024/04/08 10:32:09;;;;;;;105.30;98.10;;;23.60;1.00;;;;;;2605363;54;20391;-69
2024/04/08 10:34:35;;;;;;;105.00;97.70;;;23.60;1.00;;;;;;2606544;47;20427;-69
2024/04/08 10:37:00;;;;;;;106.90;99.50;;;23.60;1.00;;;;;;2605607;54;20416;-74
2024/04/08 10:39:26;;;;;;;106.00;98.70;;;23.60;1.00;;;;;;2606440;54;20957;-74
2024/04/08 10:41:57;;;;;;;106.17;98.87;;;23.70;1.00;;;;;;2606773;54;20170;-75
2024/04/08 10:44:23;;;;;;;105.63;98.33;;;23.70;1.00;;;;;;2607364;54;20183;-75
2024/04/08 10:46:49;;;;;;;106.37;99.03;;;23.80;1.00;;;;;;2606776;54;20420;-75
2024/04/08 10:49:15;;;;;;;105.80;98.50;;;23.80;1.00;;;;;;2608885;54;20456;-75
2024/04/08 10:51:43;;;;;;;105.77;98.47;;;23.80;1.00;;;;;;2609665;54;20167;-75
2024/04/08 10:54:08;;;;;;;103.63;96.53;;;23.80;1.00;;;;;;2608919;54;20234;-75
2024/04/08 10:56:34;;;;;;;103.13;96.03;;;23.90;1.00;;;;;;2606624;54;20431;-70
2024/04/08 10:59:00;;;;;;;104.10;97.17;;;23.90;1.00;;;;;;2607372;47;20166;-70
2024/04/08 11:01:26;;;;;;;105.63;98.43;;;23.90;1.00;;;;;;2606501;39;20707;-71
2024/04/08 11:03:53;;;;;;;105.60;98.50;;;23.90;1.00;;;;;;2606142;54;20175;-71
2024/04/08 11:06:19;;;;;;;105.23;98.23;;;23.90;1.00;;;;;;2609109;54;20238;-70
2024/04/08 11:08:44;;;;;;;105.30;98.20;;;23.90;1.00;;;;;;2607209;39;20771;-71
2024/04/08 11:11:10;;;;;;;104.63;97.73;;;24.00;1.00;;;;;;2606740;54;20167;-70
2024/04/08 11:13:36;;;;;;;105.30;98.30;;;23.90;1.00;;;;;;2606454;54;20151;-70
2024/04/08 11:16:01;;;;;;;104.57;97.57;;;23.90;1.00;;;;;;2606632;54;20158;-80
2024/04/08 11:18:27;;;;;;;105.13;98.13;;;23.90;1.00;;;;;;2609219;54;20205;-81
2024/04/08 11:20:53;;;;;;;104.10;97.00;;;23.90;1.00;;;;;;2610309;54;20155;-83
2024/04/08 11:23:19;;;;;;;104.70;97.60;;;23.90;1.00;;;;;;2611068;47;20772;-81
2024/04/08 11:25:47;;;;;;;103.60;96.60;;;23.90;1.00;;;;;;2611684;54;20498;-82
2024/04/08 11:28:12;;;;;;;104.50;97.40;;;23.90;1.00;;;;;;2611068;54;20414;-82
2024/04/08 11:30:38;;;;;;;104.27;97.17;;;23.90;1.00;;;;;;2611303;54;20407;-81
2024/04/08 11:33:04;;;;;;;103.60;96.50;;;23.80;1.00;;;;;;2613518;54;20159;-82
2024/04/08 11:35:31;;;;;;;104.17;96.97;;;23.90;1.00;;;;;;2615757;47;20175;-86
2024/04/08 11:37:56;;;;;;;104.43;97.33;;;23.90;1.00;;;;;;2613275;54;20427;-86
2024/04/08 11:40:22;;;;;;;104.67;97.40;;;23.90;1.00;;;;;;2614240;31;20931;-86
2024/04/08 11:42:48;;;;;;;104.80;97.60;;;23.90;1.00;;;;;;2614331;54;20676;-87
2024/04/08 11:45:14;;;;;;;104.17;97.00;;;23.90;1.00;;;;;;2614838;54;20159;-69
2024/04/08 11:47:39;;;;;;;104.13;97.03;;;23.90;1.00;;;;;;2612091;47;20438;-67
2024/04/08 11:50:06;;;;;;;104.70;97.60;;;23.90;1.00;;;;;;2612165;54;20166;-68
2024/04/08 11:52:33;;;;;;;105.93;98.73;;;23.80;1.00;;;;;;2612719;54;20175;-68
2024/04/08 11:54:59;;;;;;;105.67;98.57;;;23.80;1.00;;;;;;2613539;47;20407;-68
2024/04/08 11:57:25;;;;;;;105.50;98.40;;;23.80;1.00;;;;;;2612326;54;20416;-68
2024/04/08 11:59:51;;;;;;;103.47;96.50;;;23.80;1.00;;;;;;2613151;54;20526;-68
2024/04/08 12:02:16;;;;;;;104.10;97.10;;;23.80;1.00;;;;;;2611279;47;20170;-68
2024/04/08 12:04:46;;;;;;;104.80;97.80;;;23.80;1.00;;;;;;2613097;54;20511;-68
2024/04/08 12:07:12;;;;;;;104.97;97.97;;;23.80;1.00;;;;;;2609995;54;20167;-87
2024/04/08 12:09:41;;;;;;;105.33;98.03;;;23.80;1.00;;;;;;2610566;54;20424;-87
2024/04/08 12:12:09;;;;;;;104.80;97.60;;;23.80;1.00;;;;;;2609478;54;20423;-88
2024/04/08 12:14:35;;;;;;;104.50;97.40;;;23.80;1.00;;;;;;2610555;47;20404;-88
2024/04/08 12:17:01;;;;;;;104.50;97.40;;;23.70;1.00;;;;;;2609505;47;20426;-88
2024/04/08 12:19:28;;;;;;;105.30;98.00;;;23.70;1.00;;;;;;2609606;39;20818;-86
2024/04/08 12:21:53;;;;;;;104.30;97.20;;;23.70;1.00;;;;;;2610490;39;20960;-87